Mogadishu, Somalia
Current Conditions -  °F | °C
As of 4:55 AM on Wednesday 22 Oct 2014 (Local Time) from KQVF Reporting Station
Few Clouds Few Clouds  
Wind Chill: 78°   Ceiling: Unl
Heat Index: 80°   Visibility: 6mi
Dew Point: 73°   Wind: 2mph
Humidity: 85%   Direction: 170°S
Pressure: 29.98"   Gusts: NA
Location:  2.05°N, 45.33°E
Report Text: KQVF 220155Z AUTO 17002KT 9999 FEW024 25/23 A2998 RMK AO2 SLP151 T02540228
Loading
Personal Weather Stations






























Interactive Weather Map
Tropical Storm Tracking
New forecast layout! Learn more

10-Day Weather Forecast

Advertisements
Track Severe Weather on mobile